Time;durP1;ratioP1;P1;durP2;ratioP2;P2;SDS_P1;SDS_P2;PMS_P1;PMS_P2;Temp;Humidity;BMP_temperature;BMP_pressure;BME280_temperature;BME280_humidity;BME280_pressure;Samples;Min_cycle;Max_cycle;Signal;HPM_P1;HPM_P2
2023/11/26 00:00:10;;;;;;;1.42;1.10;;;2.10;99.90;;;;;;4952973;28;20205;-73
2023/11/26 00:02:38;;;;;;;1.35;1.25;;;2.10;99.90;;;;;;4953018;28;20231;-72
2023/11/26 00:05:07;;;;;;;1.38;1.27;;;2.10;99.90;;;;;;4952680;28;20247;-72
2023/11/26 00:07:34;;;;;;;1.77;1.38;;;2.00;99.90;;;;;;4952576;28;20210;-70
2023/11/26 00:10:01;;;;;;;2.72;1.50;;;2.00;99.90;;;;;;4952833;28;20211;-71
2023/11/26 00:12:27;;;;;;;1.70;1.10;;;2.00;99.90;;;;;;4952832;28;20225;-70
2023/11/26 00:14:54;;;;;;;1.40;1.13;;;2.00;99.90;;;;;;4952562;28;20689;-70
2023/11/26 04:31:31;;;;;;;1.42;0.90;;;0.80;99.90;;;;;;5573526;23;20287;-93
2023/11/26 04:34:04;;;;;;;1.00;0.90;;;0.90;99.90;;;;;;5000725;28;20216;-93
2023/11/26 04:36:32;;;;;;;1.00;0.90;;;0.90;99.90;;;;;;4998711;28;20187;-92
2023/11/26 04:38:59;;;;;;;1.23;1.05;;;0.90;99.90;;;;;;4999179;28;20184;-93
2023/11/26 04:41:26;;;;;;;1.60;0.95;;;1.00;99.90;;;;;;4984046;28;20224;-93
2023/11/26 04:43:53;;;;;;;1.30;1.13;;;1.00;99.90;;;;;;4972451;28;20185;-94
2023/11/26 04:46:20;;;;;;;4.80;1.73;;;1.00;99.90;;;;;;4979392;28;20198;-93
2023/11/26 04:48:48;;;;;;;1.30;1.20;;;1.10;99.90;;;;;;4988866;28;20234;-94
2023/11/26 04:51:15;;;;;;;1.27;1.13;;;1.10;99.90;;;;;;4983535;28;20284;-94
2023/11/26 04:53:42;;;;;;;1.23;1.00;;;1.10;99.90;;;;;;4980259;28;20231;-94
2023/11/26 04:56:09;;;;;;;1.10;0.90;;;1.20;99.90;;;;;;4973221;28;20257;-94
2023/11/26 04:58:39;;;;;;;1.10;0.90;;;1.20;99.90;;;;;;4978133;28;20268;-94
2023/11/26 05:01:22;;;;;;;1.45;1.27;;;1.20;99.90;;;;;;4995981;28;20208;-94
2023/11/26 05:04:15;;;;;;;;;;;;;;;;;;;;;
2023/11/26 05:06:43;;;;;;;3.50;1.80;;;1.30;99.90;;;;;;4987040;28;20185;-94
2023/11/26 05:09:11;;;;;;;1.38;1.10;;;1.30;99.90;;;;;;4978501;28;20202;-94
2023/11/26 05:11:38;;;;;;;1.23;1.13;;;1.30;99.90;;;;;;4985984;28;20250;-94
2023/11/26 05:14:05;;;;;;;1.35;1.25;;;1.30;99.90;;;;;;4989538;28;20231;-93
2023/11/26 05:16:32;;;;;;;1.25;0.95;;;1.30;99.90;;;;;;4989510;28;20189;-93
2023/11/26 05:19:00;;;;;;;1.50;1.30;;;1.30;99.90;;;;;;4985192;28;20200;-91
2023/11/26 05:21:28;;;;;;;1.33;1.10;;;1.40;99.90;;;;;;4986418;28;20692;-92
2023/11/26 05:23:55;;;;;;;1.77;1.63;;;1.40;99.90;;;;;;4986397;28;20240;-95
2023/11/26 05:26:26;;;;;;;2.92;1.40;;;1.40;99.90;;;;;;4986310;28;20185;-96
2023/11/26 05:28:53;;;;;;;1.10;1.00;;;1.40;99.90;;;;;;4978575;28;20188;-93
2023/11/26 05:31:20;;;;;;;1.13;1.02;;;1.40;99.90;;;;;;4977901;28;20288;-95
2023/11/26 05:33:46;;;;;;;1.55;1.13;;;1.40;99.90;;;;;;4981014;28;20212;-94
2023/11/26 05:36:15;;;;;;;1.55;1.35;;;1.40;99.90;;;;;;4982903;28;20264;-95
2023/11/26 05:38:42;;;;;;;1.23;1.10;;;1.50;99.90;;;;;;4975603;28;20253;-94
2023/11/26 05:41:08;;;;;;;1.27;1.08;;;1.50;99.90;;;;;;4976550;28;20227;-94
2023/11/26 05:43:35;;;;;;;1.20;1.05;;;1.50;99.90;;;;;;4996788;28;20200;-93
2023/11/26 05:46:06;;;;;;;1.23;0.98;;;1.50;99.90;;;;;;4995464;28;20229;-91
2023/11/26 05:48:46;;;;;;;1.60;1.20;;;1.50;99.90;;;;;;4981596;28;20248;-94
2023/11/26 05:51:37;;;;;;;2.10;1.90;;;1.50;99.90;;;;;;4987049;28;20216;-93
2023/11/26 05:54:07;;;;;;;1.75;1.20;;;1.50;99.90;;;;;;4985608;28;20215;-93
2023/11/26 05:56:36;;;;;;;1.30;1.20;;;1.60;99.90;;;;;;4984906;28;20205;-93
2023/11/26 05:59:12;;;;;;;1.23;1.13;;;1.60;99.90;;;;;;4995929;28;20196;-94
2023/11/26 06:01:39;;;;;;;1.50;1.33;;;1.60;99.90;;;;;;4974861;28;20212;-92
2023/11/26 06:04:14;;;;;;;1.02;0.93;;;1.60;99.90;;;;;;4987398;28;20220;-93
2023/11/26 06:07:20;;;;;;;2.53;1.67;;;1.60;99.90;;;;;;4990864;28;20232;-94
2023/11/26 06:09:59;;;;;;;3.08;1.35;;;1.50;99.90;;;;;;4989043;28;20239;-94
2023/11/26 06:13:03;;;;;;;1.45;1.23;;;1.50;99.90;;;;;;4980695;28;20220;-94
2023/11/26 06:16:07;;;;;;;1.23;1.10;;;1.40;99.90;;;;;;4963820;28;20198;-94
2023/11/26 06:18:33;;;;;;;1.00;0.80;;;1.40;99.90;;;;;;4991554;28;20255;-92
2023/11/26 06:21:00;;;;;;;1.00;0.90;;;1.40;99.90;;;;;;4981069;28;20227;-93
2023/11/26 06:23:29;;;;;;;1.70;1.00;;;1.40;99.90;;;;;;4989142;28;20183;-96
2023/11/26 06:25:56;;;;;;;1.30;1.10;;;1.40;99.90;;;;;;4961816;28;20233;-92
2023/11/26 06:28:23;;;;;;;0.90;0.90;;;1.40;99.90;;;;;;4962098;28;20260;-94
2023/11/26 06:30:50;;;;;;;1.20;1.10;;;1.40;99.90;;;;;;4980817;28;20895;-94
2023/11/26 06:33:17;;;;;;;1.10;1.00;;;1.40;99.90;;;;;;4987751;23;20326;-74
2023/11/26 06:35:44;;;;;;;1.20;1.10;;;1.40;99.90;;;;;;4973333;28;20215;-73
2023/11/26 06:38:11;;;;;;;1.20;0.95;;;1.40;99.90;;;;;;4973940;28;20216;-73
2023/11/26 06:40:39;;;;;;;4.35;0.90;;;1.40;99.90;;;;;;4970457;28;20228;-74
2023/11/26 06:43:06;;;;;;;1.52;1.13;;;1.40;99.90;;;;;;4955063;28;20632;-73
2023/11/26 06:45:34;;;;;;;1.55;1.45;;;1.30;99.90;;;;;;4954328;28;20209;-73
2023/11/26 06:48:02;;;;;;;1.02;0.93;;;1.40;99.90;;;;;;4954561;28;20209;-73
2023/11/26 06:50:29;;;;;;;1.52;1.13;;;1.40;99.90;;;;;;4954646;28;20212;-73
2023/11/26 06:52:55;;;;;;;1.25;1.13;;;1.30;99.90;;;;;;4954060;28;20315;-73
2023/11/26 06:55:22;;;;;;;2.45;1.60;;;1.30;99.90;;;;;;4953968;28;20231;-73
2023/11/26 06:57:50;;;;;;;1.30;1.00;;;1.30;99.90;;;;;;4953587;28;20205;-74
2023/11/26 07:00:18;;;;;;;1.00;0.90;;;1.30;99.90;;;;;;4954411;28;20303;-74
2023/11/26 07:02:45;;;;;;;1.70;1.60;;;1.30;99.90;;;;;;4954001;28;20278;-74
2023/11/26 07:05:12;;;;;;;3.88;1.38;;;1.30;99.90;;;;;;4954320;28;20212;-74
2023/11/26 07:07:39;;;;;;;1.00;0.90;;;1.40;99.90;;;;;;4953932;28;20239;-73
2023/11/26 07:10:08;;;;;;;1.80;1.42;;;1.40;99.90;;;;;;4954737;28;20208;-72
2023/11/26 07:12:34;;;;;;;1.02;0.82;;;1.40;99.90;;;;;;4953799;28;20724;-72
2023/11/26 07:15:04;;;;;;;1.80;0.95;;;1.40;99.90;;;;;;4953918;28;20208;-72
2023/11/26 07:17:32;;;;;;;2.45;1.20;;;1.50;99.90;;;;;;4953680;28;20567;-73
2023/11/26 07:19:58;;;;;;;2.78;1.23;;;1.60;99.90;;;;;;4953894;28;20610;-73
2023/11/26 07:22:25;;;;;;;1.92;1.73;;;1.60;99.90;;;;;;4953916;28;20781;-72
2023/11/26 07:24:53;;;;;;;4.20;1.08;;;1.70;99.90;;;;;;4952491;28;20208;-73
2023/11/26 07:27:20;;;;;;;1.90;1.20;;;1.60;99.90;;;;;;4948733;28;20232;-72
2023/11/26 07:29:47;;;;;;;0.85;0.80;;;1.70;99.90;;;;;;4950096;28;20658;-72
2023/11/26 07:32:15;;;;;;;2.00;1.00;;;1.70;99.90;;;;;;4949874;28;20236;-71
2023/11/26 07:34:43;;;;;;;1.40;1.25;;;1.70;99.90;;;;;;4950162;28;20721;-72
2023/11/26 07:37:10;;;;;;;3.78;1.35;;;1.70;99.90;;;;;;4949912;28;20208;-72
2023/11/26 07:39:36;;;;;;;3.28;1.20;;;1.70;99.90;;;;;;4950163;28;20311;-72
2023/11/26 07:42:03;;;;;;;2.95;1.65;;;1.80;99.90;;;;;;4943508;28;20232;-72
2023/11/26 07:44:31;;;;;;;1.45;1.20;;;1.80;99.90;;;;;;4949756;28;20211;-72
2023/11/26 07:47:01;;;;;;;1.67;1.15;;;1.90;99.90;;;;;;4949822;28;20598;-72
2023/11/26 07:49:31;;;;;;;2.17;1.40;;;1.90;99.90;;;;;;4950193;28;20208;-72
2023/11/26 07:51:57;;;;;;;1.65;0.98;;;1.90;99.90;;;;;;4949338;28;20236;-72
2023/11/26 07:54:24;;;;;;;2.67;1.30;;;2.00;99.90;;;;;;4949564;28;20212;-72
2023/11/26 07:56:51;;;;;;;1.35;1.20;;;2.10;99.90;;;;;;4949213;28;20607;-72
2023/11/26 07:59:17;;;;;;;3.55;1.42;;;2.20;99.90;;;;;;4949772;28;20212;-72
2023/11/26 08:01:49;;;;;;;1.40;1.30;;;2.20;99.90;;;;;;4949975;28;20226;-72
2023/11/26 08:04:17;;;;;;;2.22;1.67;;;2.30;99.90;;;;;;4949903;28;20330;-72
2023/11/26 08:06:47;;;;;;;3.03;1.67;;;2.40;99.90;;;;;;4949050;28;20220;-72
2023/11/26 08:09:14;;;;;;;1.30;1.20;;;2.50;99.90;;;;;;4949428;28;20220;-72
2023/11/26 08:11:43;;;;;;;1.65;1.55;;;2.60;99.90;;;;;;4949072;28;20368;-72
2023/11/26 08:14:12;;;;;;;2.25;2.05;;;2.80;99.90;;;;;;4949210;28;20243;-72
2023/11/26 08:16:39;;;;;;;3.28;1.83;;;2.90;99.90;;;;;;4948924;28;20212;-72
2023/11/26 08:19:11;;;;;;;2.08;1.58;;;3.10;99.90;;;;;;4949286;28;20668;-72
2023/11/26 08:21:38;;;;;;;1.42;1.33;;;3.30;99.90;;;;;;4949444;28;20217;-72
2023/11/26 08:24:08;;;;;;;1.98;1.88;;;3.30;99.90;;;;;;4950873;28;20295;-72
2023/11/26 08:26:39;;;;;;;1.42;1.23;;;3.20;99.90;;;;;;4950652;28;20583;-71
2023/11/26 08:29:09;;;;;;;3.88;2.35;;;3.10;99.90;;;;;;4945825;28;20291;-72
2023/11/26 08:31:37;;;;;;;1.77;1.60;;;3.00;99.90;;;;;;4952598;28;20653;-73
2023/11/26 08:34:05;;;;;;;1.80;1.70;;;2.80;99.90;;;;;;4952835;28;20216;-72
2023/11/26 08:36:33;;;;;;;2.88;1.63;;;2.80;99.90;;;;;;4952196;28;20210;-72
2023/11/26 08:39:00;;;;;;;4.20;1.80;;;2.70;99.90;;;;;;4952853;28;20251;-71
2023/11/26 08:41:29;;;;;;;2.05;1.58;;;2.60;99.90;;;;;;4952672;28;20228;-73
2023/11/26 08:43:57;;;;;;;1.30;1.10;;;2.50;99.90;;;;;;4951625;28;20205;-72
2023/11/26 08:46:26;;;;;;;1.23;1.13;;;2.50;99.90;;;;;;4953449;28;20217;-73
2023/11/26 08:48:53;;;;;;;1.55;1.40;;;2.60;99.90;;;;;;4951282;28;20303;-72
2023/11/26 08:51:20;;;;;;;2.08;1.70;;;2.70;99.90;;;;;;4952891;28;20228;-72
2023/11/26 08:53:47;;;;;;;1.20;1.10;;;2.70;99.90;;;;;;4952824;28;20226;-72
2023/11/26 08:56:13;;;;;;;1.67;1.55;;;2.80;99.90;;;;;;4952583;28;20204;-72
2023/11/26 08:58:41;;;;;;;2.20;1.75;;;2.80;99.90;;;;;;4952969;28;20231;-72
2023/11/26 09:01:08;;;;;;;2.05;1.55;;;2.90;99.90;;;;;;4952812;28;20224;-72
2023/11/26 09:03:36;;;;;;;5.70;2.17;;;3.00;99.90;;;;;;4952779;28;20203;-72
2023/11/26 09:06:04;;;;;;;2.40;1.90;;;3.10;99.90;;;;;;4952046;28;20209;-71
2023/11/26 09:08:31;;;;;;;3.65;1.65;;;3.50;99.90;;;;;;4952821;28;20215;-71
2023/11/26 09:10:58;;;;;;;2.65;1.75;;;4.10;99.90;;;;;;4952611;28;20257;-72
2023/11/26 09:13:28;;;;;;;2.53;2.33;;;4.60;99.90;;;;;;4952615;28;20587;-72
2023/11/26 09:15:57;;;;;;;3.97;2.15;;;5.10;99.90;;;;;;4950459;28;20233;-73
2023/11/26 09:18:24;;;;;;;2.83;2.00;;;6.10;99.90;;;;;;4952640;28;20641;-71
2023/11/26 09:20:51;;;;;;;1.63;1.40;;;8.40;99.90;;;;;;4955698;28;20231;-72
2023/11/26 09:23:18;;;;;;;1.70;1.50;;;10.60;99.90;;;;;;4956091;28;20666;-73
2023/11/26 09:25:45;;;;;;;2.10;1.77;;;12.50;99.90;;;;;;4955576;28;20311;-72
2023/11/26 09:28:12;;;;;;;5.10;1.80;;;13.00;99.90;;;;;;4950616;28;20564;-72
2023/11/26 09:30:39;;;;;;;2.53;1.80;;;13.90;99.90;;;;;;4955913;28;20232;-72
2023/11/26 09:33:07;;;;;;;1.93;1.30;;;14.80;99.90;;;;;;4955531;28;20231;-72
2023/11/26 09:35:34;;;;;;;3.37;1.80;;;16.00;99.90;;;;;;4955922;28;20539;-72
2023/11/26 09:38:00;;;;;;;2.23;1.43;;;16.80;99.90;;;;;;4955496;28;20511;-72
2023/11/26 09:40:27;;;;;;;2.67;1.73;;;17.80;99.90;;;;;;4955677;28;20467;-72
2023/11/26 09:42:57;;;;;;;1.77;1.30;;;18.00;99.90;;;;;;4953268;28;20469;-72
2023/11/26 09:45:24;;;;;;;2.10;1.50;;;17.40;99.90;;;;;;4955481;28;20972;-72
2023/11/26 09:47:52;;;;;;;2.17;1.30;;;17.40;99.90;;;;;;4955183;28;20466;-72
2023/11/26 09:50:20;;;;;;;2.07;1.60;;;17.50;99.90;;;;;;4955604;28;20556;-72
2023/11/26 09:52:48;;;;;;;2.00;1.60;;;16.80;99.90;;;;;;4955728;28;22346;-72
2023/11/26 09:55:15;;;;;;;3.00;1.80;;;16.30;99.90;;;;;;4950668;28;20474;-73
2023/11/26 09:57:42;;;;;;;2.57;1.67;;;15.80;99.90;;;;;;4955056;28;20477;-73
2023/11/26 10:00:12;;;;;;;1.80;1.70;;;14.50;99.90;;;;;;4955184;28;20955;-72
2023/11/26 10:02:41;;;;;;;1.73;1.40;;;13.30;99.90;;;;;;4955491;28;20467;-72
2023/11/26 10:05:21;;;;;;;2.70;1.63;;;12.50;99.90;;;;;;4955210;28;20471;-72
2023/11/26 10:07:52;;;;;;;6.45;2.05;;;11.50;99.90;;;;;;4954962;28;20475;-72
2023/11/26 10:10:20;;;;;;;2.67;1.73;;;10.60;99.90;;;;;;4950826;28;20203;-72
2023/11/26 10:12:52;;;;;;;1.90;1.77;;;9.80;99.90;;;;;;4955366;28;20647;-72
2023/11/26 10:15:21;;;;;;;2.42;1.80;;;9.00;99.90;;;;;;4955006;28;20266;-72
2023/11/26 10:17:59;;;;;;;4.45;2.13;;;8.30;99.90;;;;;;4954800;28;20217;-72
2023/11/26 10:20:27;;;;;;;2.28;1.80;;;7.80;99.90;;;;;;4958345;28;20252;-72
2023/11/26 10:22:56;;;;;;;2.47;2.00;;;7.40;99.90;;;;;;4952119;28;20229;-72
2023/11/26 10:25:24;;;;;;;1.67;1.55;;;6.90;99.90;;;;;;4954640;28;20207;-72
2023/11/26 10:27:51;;;;;;;2.85;1.80;;;6.70;99.90;;;;;;4953349;28;20636;-72
2023/11/26 10:30:25;;;;;;;2.15;1.55;;;6.50;99.90;;;;;;4954969;28;20209;-72
2023/11/26 10:32:58;;;;;;;3.60;2.03;;;6.30;99.90;;;;;;4954668;28;20224;-72
2023/11/26 10:35:25;;;;;;;2.40;2.20;;;6.10;99.90;;;;;;4954528;28;20236;-73
2023/11/26 10:38:07;;;;;;;1.90;1.70;;;6.00;99.90;;;;;;4954647;28;20216;-72
2023/11/26 10:40:35;;;;;;;2.15;1.95;;;6.00;99.90;;;;;;4952256;28;20228;-73
2023/11/26 10:43:03;;;;;;;4.10;2.17;;;6.00;99.90;;;;;;4954558;28;20209;-73
2023/11/26 10:45:31;;;;;;;1.73;1.60;;;6.10;99.90;;;;;;4954224;28;20212;-74
2023/11/26 10:48:04;;;;;;;3.55;1.90;;;6.10;99.90;;;;;;4954117;28;20566;-72
2023/11/26 10:50:36;;;;;;;3.10;1.85;;;6.10;99.90;;;;;;4954611;28;20656;-71
2023/11/26 10:53:06;;;;;;;2.20;2.00;;;5.90;99.90;;;;;;4954690;28;20234;-72
2023/11/26 10:55:39;;;;;;;2.22;1.85;;;5.70;99.90;;;;;;4954286;28;20208;-72
2023/11/26 10:58:12;;;;;;;5.00;1.63;;;5.60;99.90;;;;;;4954180;28;20311;-71
2023/11/26 11:00:40;;;;;;;1.85;1.70;;;5.60;99.90;;;;;;4951316;28;20237;-73
2023/11/26 11:03:07;;;;;;;2.85;1.70;;;5.70;99.90;;;;;;4954206;28;20216;-70
2023/11/26 11:05:35;;;;;;;1.75;1.65;;;5.90;99.90;;;;;;4953431;28;20224;-72
2023/11/26 11:08:04;;;;;;;2.20;1.85;;;7.00;99.90;;;;;;4952202;28;20621;-72
2023/11/26 11:10:44;;;;;;;1.55;1.45;;;8.30;99.90;;;;;;4953518;28;20213;-72
2023/11/26 11:13:15;;;;;;;2.92;1.90;;;9.50;99.90;;;;;;4956162;28;20232;-72
2023/11/26 11:15:43;;;;;;;2.05;1.52;;;10.20;99.90;;;;;;4947080;28;20670;-71
2023/11/26 11:18:40;;;;;;;1.38;1.27;;;10.30;99.90;;;;;;4953108;28;20213;-71
2023/11/26 11:21:09;;;;;;;2.25;1.63;;;9.40;99.90;;;;;;4951178;28;20324;-71
2023/11/26 11:23:38;;;;;;;1.42;1.33;;;8.60;99.90;;;;;;4953347;28;20209;-71
2023/11/26 11:26:07;;;;;;;1.80;1.65;;;7.90;99.90;;;;;;4953793;28;20221;-72
2023/11/26 11:28:42;;;;;;;1.38;1.27;;;7.50;99.90;;;;;;4954779;28;20262;-71
2023/11/26 11:31:10;;;;;;;2.10;1.80;;;7.10;99.90;;;;;;4951700;28;20299;-71
2023/11/26 11:33:57;;;;;;;2.72;1.40;;;6.80;99.90;;;;;;4953397;28;20646;-71
2023/11/26 11:36:50;;;;;;;2.03;1.58;;;6.50;99.90;;;;;;4951466;28;20665;-71
2023/11/26 11:39:17;;;;;;;1.63;1.52;;;6.20;99.90;;;;;;4951488;28;20303;-71
2023/11/26 11:42:10;;;;;;;5.07;2.00;;;6.00;99.90;;;;;;4953380;28;20600;-71
2023/11/26 11:44:38;;;;;;;2.05;1.85;;;5.90;99.90;;;;;;4953389;28;20212;-71
2023/11/26 11:47:06;;;;;;;1.83;1.73;;;6.00;99.90;;;;;;4953095;28;20236;-73
2023/11/26 11:50:04;;;;;;;1.88;1.67;;;5.90;99.90;;;;;;4953423;28;20209;-71
2023/11/26 11:52:30;;;;;;;2.85;1.70;;;5.90;99.90;;;;;;4953497;28;20235;-72
2023/11/26 11:55:12;;;;;;;1.38;1.27;;;5.80;99.90;;;;;;4951787;28;20224;-72
2023/11/26 11:57:46;;;;;;;2.78;1.55;;;5.80;99.90;;;;;;4950450;28;20675;-72
2023/11/26 12:00:16;;;;;;;2.00;1.77;;;5.60;99.90;;;;;;4953114;28;20237;-72
2023/11/26 12:02:43;;;;;;;2.85;1.58;;;5.70;99.90;;;;;;4953175;28;20266;-71
2023/11/26 12:05:21;;;;;;;2.75;1.33;;;5.80;99.90;;;;;;4952168;28;20216;-72
2023/11/26 12:07:48;;;;;;;2.40;1.75;;;5.80;99.90;;;;;;4952250;28;20226;-72
2023/11/26 12:10:22;;;;;;;1.75;1.52;;;5.80;99.90;;;;;;4951385;28;20213;-73
2023/11/26 12:13:01;;;;;;;1.70;1.60;;;5.80;99.90;;;;;;4952611;28;20219;-72
2023/11/26 12:15:28;;;;;;;3.20;2.10;;;6.00;99.90;;;;;;4952267;28;20247;-72
2023/11/26 12:17:57;;;;;;;1.30;1.20;;;6.00;99.90;;;;;;4951933;28;20208;-72
2023/11/26 12:20:23;;;;;;;1.65;1.48;;;6.20;99.90;;;;;;4949000;28;20314;-73
2023/11/26 12:22:51;;;;;;;1.38;1.27;;;6.40;99.90;;;;;;4952513;28;20205;-72
2023/11/26 12:25:21;;;;;;;1.52;1.13;;;6.50;99.90;;;;;;4952294;28;20236;-72
2023/11/26 12:27:49;;;;;;;2.90;1.60;;;6.50;99.90;;;;;;4952209;28;20227;-71
2023/11/26 12:30:19;;;;;;;1.55;1.20;;;6.50;99.90;;;;;;4952230;28;20222;-72
2023/11/26 12:32:48;;;;;;;1.60;1.50;;;6.50;99.90;;;;;;4952470;28;20222;-72
2023/11/26 12:35:15;;;;;;;4.38;1.73;;;6.60;99.90;;;;;;4952089;28;20689;-72
2023/11/26 12:37:42;;;;;;;1.10;1.00;;;6.70;99.90;;;;;;4951892;28;20232;-72
2023/11/26 12:40:11;;;;;;;1.95;1.38;;;6.70;99.90;;;;;;4952239;28;20757;-71
2023/11/26 12:42:40;;;;;;;1.75;1.02;;;6.90;99.90;;;;;;4953805;28;20255;-72
2023/11/26 12:45:10;;;;;;;1.90;1.52;;;7.20;99.90;;;;;;4948595;28;20220;-72
2023/11/26 12:47:50;;;;;;;2.28;1.60;;;7.40;99.90;;;;;;4948378;28;20208;-71
2023/11/26 12:50:17;;;;;;;2.00;1.30;;;7.30;99.90;;;;;;4951071;28;20270;-71
2023/11/26 12:52:44;;;;;;;2.55;1.38;;;7.30;99.90;;;;;;4946826;28;20728;-72
2023/11/26 12:55:11;;;;;;;2.97;1.33;;;7.30;99.90;;;;;;4949822;28;20228;-72
2023/11/26 12:57:39;;;;;;;2.10;1.20;;;7.50;99.90;;;;;;4955921;28;20209;-72
2023/11/26 13:00:10;;;;;;;4.20;1.60;;;7.70;99.90;;;;;;4956346;28;20240;-72
2023/11/26 13:02:37;;;;;;;3.10;1.60;;;7.70;99.90;;;;;;4955703;28;20233;-72
2023/11/26 13:05:30;;;;;;;1.25;1.15;;;7.70;99.90;;;;;;4955833;28;20211;-72
2023/11/26 13:07:58;;;;;;;3.47;1.40;;;7.60;99.90;;;;;;4951093;28;20572;-72
2023/11/26 13:10:45;;;;;;;1.30;1.20;;;7.20;99.90;;;;;;4955980;28;20212;-72
2023/11/26 13:13:13;;;;;;;3.70;1.40;;;7.00;99.90;;;;;;4951309;28;20260;-71
2023/11/26 13:15:41;;;;;;;1.30;1.20;;;6.90;99.90;;;;;;4949466;28;20303;-71
2023/11/26 13:18:12;;;;;;;1.55;1.40;;;7.00;99.90;;;;;;4953239;28;20635;-71
2023/11/26 13:20:43;;;;;;;1.70;1.15;;;7.10;99.90;;;;;;4949675;28;20315;-71
2023/11/26 13:23:10;;;;;;;1.80;1.23;;;7.10;99.90;;;;;;4952124;28;20218;-72
2023/11/26 13:25:37;;;;;;;1.75;1.38;;;6.90;99.90;;;;;;4955333;28;20208;-71
2023/11/26 13:28:06;;;;;;;2.15;1.20;;;6.80;99.90;;;;;;4954327;28;20603;-72
2023/11/26 13:30:38;;;;;;;1.45;1.35;;;6.80;99.90;;;;;;4950537;28;20251;-72
2023/11/26 13:33:05;;;;;;;4.13;1.25;;;6.50;99.90;;;;;;4949712;28;20595;-71
2023/11/26 13:35:32;;;;;;;2.08;1.50;;;6.40;99.90;;;;;;4957961;28;20216;-71
2023/11/26 13:38:01;;;;;;;3.33;1.80;;;6.20;99.90;;;;;;4955373;28;20211;-71
2023/11/26 13:40:28;;;;;;;1.92;1.60;;;6.10;99.90;;;;;;4955296;28;20221;-71
2023/11/26 13:42:54;;;;;;;1.83;1.58;;;6.00;99.90;;;;;;4949626;28;20212;-71
2023/11/26 13:45:21;;;;;;;1.65;1.50;;;5.90;99.90;;;;;;4955418;28;20209;-72
2023/11/26 13:47:48;;;;;;;2.53;1.50;;;5.90;99.90;;;;;;4955493;28;20223;-70
2023/11/26 13:50:15;;;;;;;2.08;1.52;;;5.80;99.90;;;;;;4956102;28;20230;-71
2023/11/26 13:52:41;;;;;;;1.80;1.70;;;5.90;99.90;;;;;;4955860;28;20209;-71
2023/11/26 13:55:09;;;;;;;1.73;1.30;;;5.80;99.90;;;;;;4955731;28;20602;-71
2023/11/26 13:57:37;;;;;;;1.80;1.33;;;5.80;99.90;;;;;;4954859;28;20231;-71
2023/11/26 14:00:09;;;;;;;7.53;1.80;;;5.90;99.90;;;;;;4947134;28;20593;-71
2023/11/26 14:02:35;;;;;;;1.90;1.17;;;5.80;99.90;;;;;;4947343;28;20252;-71
2023/11/26 14:05:05;;;;;;;1.70;1.42;;;5.60;99.90;;;;;;4942952;28;20223;-71
2023/11/26 14:07:31;;;;;;;5.32;2.00;;;5.50;99.90;;;;;;4946642;28;20212;-71
2023/11/26 14:10:00;;;;;;;1.95;1.33;;;5.40;99.90;;;;;;4943597;28;20216;-71
2023/11/26 14:12:28;;;;;;;2.00;1.02;;;5.50;99.90;;;;;;4946440;28;20230;-71
2023/11/26 14:14:55;;;;;;;1.52;1.15;;;5.40;99.90;;;;;;4949199;28;20278;-71
2023/11/26 14:17:22;;;;;;;2.92;1.40;;;5.40;99.90;;;;;;4954749;28;20605;-71
2023/11/26 14:19:49;;;;;;;2.70;1.30;;;5.50;99.90;;;;;;4955467;28;20211;-72
2023/11/26 14:22:15;;;;;;;1.58;1.48;;;5.50;99.90;;;;;;4954899;28;20234;-72
2023/11/26 14:24:42;;;;;;;1.17;1.08;;;5.40;99.90;;;;;;4954798;28;20208;-72
2023/11/26 14:27:09;;;;;;;1.60;1.50;;;5.40;99.90;;;;;;4954759;28;20211;-72
2023/11/26 14:29:38;;;;;;;1.65;1.20;;;5.30;99.90;;;;;;4954627;28;20211;-72
2023/11/26 14:32:05;;;;;;;2.40;1.30;;;5.30;99.90;;;;;;4954952;28;20245;-72
2023/11/26 14:34:32;;;;;;;2.38;1.52;;;5.30;99.90;;;;;;4954574;28;20232;-71
2023/11/26 14:36:59;;;;;;;1.30;1.20;;;5.30;99.90;;;;;;4954537;28;20213;-72
2023/11/26 14:39:26;;;;;;;2.45;1.92;;;5.20;99.90;;;;;;4954603;28;20215;-72
2023/11/26 14:41:53;;;;;;;2.40;1.60;;;5.10;99.90;;;;;;4953934;28;20700;-71
2023/11/26 14:44:20;;;;;;;2.42;1.40;;;5.00;99.90;;;;;;4954493;28;20203;-71
2023/11/26 14:46:48;;;;;;;2.45;1.25;;;5.00;99.90;;;;;;4954072;28;20208;-71
2023/11/26 14:49:16;;;;;;;2.55;1.70;;;4.90;99.90;;;;;;4954784;28;20242;-71
2023/11/26 14:51:44;;;;;;;2.72;1.70;;;4.90;99.90;;;;;;4952553;28;20715;-72
2023/11/26 14:54:11;;;;;;;2.30;1.55;;;4.80;99.90;;;;;;4950390;28;20287;-71
2023/11/26 14:56:39;;;;;;;1.60;1.50;;;4.70;99.90;;;;;;4950890;28;20210;-71
2023/11/26 14:59:06;;;;;;;2.83;1.95;;;4.70;99.90;;;;;;4952050;28;20642;-71
2023/11/26 15:01:34;;;;;;;1.52;1.42;;;4.60;99.90;;;;;;4954284;28;20233;-71
2023/11/26 15:04:04;;;;;;;1.65;1.40;;;4.60;99.90;;;;;;4952578;28;20201;-72
2023/11/26 15:06:32;;;;;;;1.40;1.30;;;4.50;99.90;;;;;;4951866;28;20216;-72
2023/11/26 15:09:00;;;;;;;3.90;1.75;;;4.50;99.90;;;;;;4952674;28;20208;-72
2023/11/26 15:11:28;;;;;;;1.55;1.40;;;4.50;99.90;;;;;;4952526;28;20234;-72
2023/11/26 15:13:56;;;;;;;1.30;1.05;;;4.50;99.90;;;;;;4952128;28;20224;-72
2023/11/26 15:16:23;;;;;;;1.98;1.58;;;4.40;99.90;;;;;;4952566;28;20205;-72
2023/11/26 15:18:50;;;;;;;1.73;1.50;;;4.40;99.90;;;;;;4951798;28;20206;-73
2023/11/26 15:21:20;;;;;;;5.82;1.58;;;4.40;99.90;;;;;;4952260;28;20225;-73
2023/11/26 15:23:47;;;;;;;1.67;1.30;;;4.30;99.90;;;;;;4951127;28;20206;-73
2023/11/26 15:26:18;;;;;;;3.20;1.73;;;4.30;99.90;;;;;;4950444;28;20258;-72
2023/11/26 15:28:46;;;;;;;1.52;1.42;;;4.30;99.90;;;;;;4950048;28;20209;-72
2023/11/26 15:31:17;;;;;;;2.47;1.80;;;4.30;99.90;;;;;;4952456;28;20226;-72
2023/11/26 15:33:44;;;;;;;1.95;1.48;;;4.20;99.90;;;;;;4950480;28;20215;-72
2023/11/26 15:36:16;;;;;;;3.92;2.03;;;4.20;99.90;;;;;;4951306;28;20275;-72
2023/11/26 15:38:44;;;;;;;2.45;1.45;;;4.20;99.90;;;;;;4950399;28;20221;-72
2023/11/26 15:41:17;;;;;;;2.55;1.83;;;4.00;99.90;;;;;;4950850;28;20233;-71
2023/11/26 15:43:44;;;;;;;1.20;1.10;;;4.00;99.90;;;;;;4950765;28;20628;-71
2023/11/26 15:46:12;;;;;;;1.40;1.20;;;4.00;99.90;;;;;;4951330;28;20205;-72
2023/11/26 15:48:41;;;;;;;1.98;1.77;;;4.00;99.90;;;;;;4951083;28;20215;-72
2023/11/26 15:51:09;;;;;;;1.52;1.40;;;3.90;99.90;;;;;;4950489;28;20225;-71
2023/11/26 15:53:38;;;;;;;2.20;1.40;;;3.90;99.90;;;;;;4946649;28;20300;-72
2023/11/26 15:56:07;;;;;;;1.52;1.42;;;3.90;99.90;;;;;;4948952;28;20224;-72
2023/11/26 15:58:34;;;;;;;1.65;1.55;;;3.70;99.90;;;;;;4948872;28;20288;-72
2023/11/26 16:01:02;;;;;;;1.40;1.25;;;3.70;99.90;;;;;;4949471;28;20229;-72
2023/11/26 16:03:32;;;;;;;2.50;1.42;;;3.70;99.90;;;;;;4948857;28;20209;-70
2023/11/26 16:06:00;;;;;;;1.58;1.40;;;3.60;99.90;;;;;;4948111;28;20304;-71
2023/11/26 16:08:27;;;;;;;3.00;1.67;;;3.50;99.90;;;;;;4948545;28;20262;-70
2023/11/26 16:10:54;;;;;;;1.92;1.80;;;3.50;99.90;;;;;;4948423;28;20253;-71
2023/11/26 16:13:23;;;;;;;2.20;2.00;;;3.50;99.90;;;;;;4949144;28;20205;-71
2023/11/26 16:15:49;;;;;;;2.95;1.58;;;3.50;99.90;;;;;;4947995;28;20312;-71
2023/11/26 16:18:17;;;;;;;2.33;1.98;;;3.40;99.90;;;;;;4949137;28;20654;-71
2023/11/26 16:20:45;;;;;;;4.53;2.30;;;3.40;99.90;;;;;;4945588;28;20275;-71
2023/11/26 16:23:12;;;;;;;2.67;1.90;;;3.40;99.90;;;;;;4949344;28;20208;-71
2023/11/26 16:25:39;;;;;;;2.88;1.70;;;3.40;99.90;;;;;;4946275;28;20455;-73
2023/11/26 16:28:12;;;;;;;2.92;2.08;;;3.30;99.90;;;;;;4945406;28;20797;-73
2023/11/26 16:30:40;;;;;;;2.33;2.00;;;3.30;99.90;;;;;;4947207;28;20320;-72
2023/11/26 16:33:07;;;;;;;3.00;1.92;;;3.30;99.90;;;;;;4948551;28;20212;-73
2023/11/26 16:35:36;;;;;;;2.65;1.70;;;3.30;99.90;;;;;;4947267;28;20224;-73
2023/11/26 16:38:04;;;;;;;2.15;1.50;;;3.20;99.90;;;;;;4948831;28;20216;-72
2023/11/26 16:40:31;;;;;;;3.25;2.28;;;3.20;99.90;;;;;;4948270;28;20827;-71
2023/11/26 16:42:58;;;;;;;2.33;1.63;;;3.20;99.90;;;;;;4945777;28;20213;-72
2023/11/26 16:45:25;;;;;;;1.80;1.70;;;3.10;99.90;;;;;;4944174;28;20243;-71
2023/11/26 16:47:53;;;;;;;1.95;1.65;;;3.10;99.90;;;;;;4944870;28;20221;-71
2023/11/26 16:50:21;;;;;;;1.77;1.52;;;3.00;99.90;;;;;;4945022;28;20568;-72
2023/11/26 16:52:50;;;;;;;1.90;1.42;;;3.00;99.90;;;;;;4945879;28;20208;-72
2023/11/26 16:55:17;;;;;;;1.92;1.80;;;2.90;99.90;;;;;;4946502;28;20665;-73
2023/11/26 16:57:44;;;;;;;1.92;1.52;;;2.90;99.90;;;;;;4941093;28;20216;-71
2023/11/26 17:00:12;;;;;;;3.45;1.77;;;2.80;99.90;;;;;;4944152;28;20685;-72
2023/11/26 17:02:39;;;;;;;1.60;1.50;;;2.80;99.90;;;;;;4944986;28;20291;-73
2023/11/26 17:05:09;;;;;;;2.65;2.13;;;2.80;99.90;;;;;;4942915;28;20287;-72
2023/11/26 17:07:36;;;;;;;3.65;1.85;;;2.80;99.90;;;;;;4943707;28;20208;-72
2023/11/26 17:10:03;;;;;;;2.80;1.95;;;2.80;99.90;;;;;;4942608;28;20287;-72
2023/11/26 17:12:37;;;;;;;3.08;2.13;;;2.80;99.90;;;;;;4948339;28;20227;-70
2023/11/26 17:15:05;;;;;;;2.28;2.08;;;2.80;99.90;;;;;;4948733;28;20224;-73
2023/11/26 17:17:32;;;;;;;2.58;2.28;;;2.80;99.90;;;;;;4948081;28;20231;-70
2023/11/26 17:20:00;;;;;;;1.65;1.55;;;2.80;99.90;;;;;;4946702;28;20212;-70
2023/11/26 17:22:32;;;;;;;3.30;2.45;;;2.80;99.90;;;;;;4947432;28;20228;-73